createdAt,value
2023-04-19T00:00:40.347Z,24.78
2023-04-19T00:01:40.409Z,24.77
2023-04-19T00:02:42.249Z,24.77
2023-04-19T00:03:40.649Z,24.77
2023-04-19T00:04:40.591Z,24.77
2023-04-19T00:05:40.594Z,24.75
2023-04-19T00:06:40.635Z,24.74
2023-04-19T00:07:40.696Z,24.75
2023-04-19T00:08:40.733Z,24.75
2023-04-19T00:09:40.776Z,24.75
2023-04-19T00:10:40.856Z,24.77
2023-04-19T00:11:40.823Z,24.77
2023-04-19T00:12:40.862Z,24.75
2023-04-19T00:13:40.879Z,24.74
2023-04-19T00:14:40.899Z,24.75
2023-04-19T00:15:40.901Z,24.77
2023-04-19T00:16:41.019Z,24.74
2023-04-19T00:17:41.063Z,24.75
2023-04-19T00:18:41.040Z,24.73
2023-04-19T00:19:41.095Z,24.77
2023-04-19T00:20:41.125Z,24.74
2023-04-19T00:21:41.133Z,24.75
2023-04-19T00:22:41.129Z,24.73
2023-04-19T00:23:41.117Z,24.73
2023-04-19T00:24:41.200Z,24.74
2023-04-19T00:25:41.217Z,24.74
2023-04-19T00:26:41.236Z,24.74
2023-04-19T00:27:41.249Z,24.74
2023-04-19T00:28:41.303Z,24.74
2023-04-19T00:29:41.300Z,24.73
2023-04-19T00:30:41.389Z,24.74
2023-04-19T00:31:41.392Z,24.73
2023-04-19T00:32:41.490Z,24.74
2023-04-19T00:33:41.495Z,24.73
2023-04-19T00:34:41.506Z,24.73
2023-04-19T00:35:41.571Z,24.70
2023-04-19T00:36:41.628Z,24.74
2023-04-19T00:37:41.642Z,24.71
2023-04-19T00:38:41.686Z,24.70
2023-04-19T00:39:41.730Z,24.73
2023-04-19T00:40:41.768Z,24.71
2023-04-19T00:41:41.796Z,24.73
2023-04-19T00:42:41.843Z,24.70
2023-04-19T00:43:41.898Z,24.73
2023-04-19T00:44:41.917Z,24.74
2023-04-19T00:45:41.918Z,24.71
2023-04-19T00:46:41.976Z,24.71
2023-04-19T00:47:42.051Z,24.71
2023-04-19T00:48:42.015Z,24.70
2023-04-19T00:49:41.990Z,24.70
2023-04-19T00:50:42.031Z,24.71
2023-04-19T00:51:42.030Z,24.73
2023-04-19T00:52:42.072Z,24.70
2023-04-19T00:53:42.068Z,24.70
2023-04-19T00:54:42.105Z,24.70
2023-04-19T00:55:42.140Z,24.71
2023-04-19T00:56:42.131Z,24.70
2023-04-19T00:57:42.168Z,24.67
2023-04-19T00:58:42.162Z,24.70
2023-04-19T00:59:42.196Z,24.71
2023-04-19T01:00:42.209Z,24.71
2023-04-19T01:01:42.257Z,24.70
2023-04-19T01:02:43.258Z,24.70
2023-04-19T01:03:42.541Z,24.70
2023-04-19T01:04:42.273Z,24.68
2023-04-19T01:05:42.283Z,24.70
2023-04-19T01:06:42.302Z,24.68
2023-04-19T01:07:42.287Z,24.70
2023-04-19T01:08:42.288Z,24.67
2023-04-19T01:09:42.313Z,24.70
2023-04-19T01:10:42.364Z,24.70
2023-04-19T01:11:43.454Z,24.68
2023-04-19T01:12:42.385Z,24.68
2023-04-19T01:13:42.467Z,24.70
2023-04-19T01:14:42.458Z,24.67
2023-04-19T01:15:42.490Z,24.70
2023-04-19T01:16:42.458Z,24.68
2023-04-19T01:17:42.509Z,24.67
2023-04-19T01:18:42.469Z,24.64
2023-04-19T01:19:42.479Z,24.70
2023-04-19T01:20:42.467Z,24.67
2023-04-19T01:21:42.466Z,24.67
2023-04-19T01:22:42.512Z,24.70
2023-04-19T01:23:42.548Z,24.68
2023-04-19T01:24:42.530Z,24.68
2023-04-19T01:25:42.521Z,24.66
2023-04-19T01:26:42.539Z,24.68
2023-04-19T01:27:42.609Z,24.66
2023-04-19T01:28:42.657Z,24.67
2023-04-19T01:29:42.605Z,24.66
2023-04-19T01:30:42.654Z,24.67
2023-04-19T01:31:42.672Z,24.66
2023-04-19T01:32:42.680Z,24.67
2023-04-19T01:33:42.655Z,24.67
2023-04-19T01:34:42.620Z,24.66
2023-04-19T01:35:42.659Z,24.66
2023-04-19T01:36:42.627Z,24.64
2023-04-19T01:37:42.660Z,24.66
2023-04-19T01:38:42.671Z,24.67
2023-04-19T01:39:42.655Z,24.64
2023-04-19T01:40:42.633Z,24.66
2023-04-19T01:41:42.670Z,24.66
2023-04-19T01:42:42.655Z,24.64
2023-04-19T01:43:42.669Z,24.64
2023-04-19T01:44:42.666Z,24.66
2023-04-19T01:45:42.702Z,24.64
2023-04-19T01:46:42.769Z,24.66
2023-04-19T01:47:42.741Z,24.66
2023-04-19T01:48:42.689Z,24.67
2023-04-19T01:49:42.736Z,24.66
2023-04-19T01:50:42.729Z,24.66
2023-04-19T01:51:42.752Z,24.64
2023-04-19T01:52:42.770Z,24.63
2023-04-19T01:53:42.770Z,24.66
2023-04-19T01:54:42.885Z,24.64
2023-04-19T01:55:42.866Z,24.64
2023-04-19T01:56:42.893Z,24.63
2023-04-19T01:57:42.891Z,24.64
2023-04-19T01:58:42.907Z,24.66
2023-04-19T01:59:42.884Z,24.66
2023-04-19T02:00:42.929Z,24.63
2023-04-19T02:01:42.888Z,24.66
2023-04-19T02:02:42.985Z,24.66
2023-04-19T02:03:43.044Z,24.63
2023-04-19T02:04:42.891Z,24.63
2023-04-19T02:05:42.887Z,24.64
2023-04-19T02:06:42.879Z,24.62
2023-04-19T02:07:42.868Z,24.63
2023-04-19T02:08:42.863Z,24.63
2023-04-19T02:09:42.879Z,24.64
2023-04-19T02:10:42.881Z,24.63
2023-04-19T02:11:42.879Z,24.63
2023-04-19T02:12:42.885Z,24.63
2023-04-19T02:13:42.857Z,24.64
2023-04-19T02:14:42.868Z,24.64
2023-04-19T02:15:42.840Z,24.63
2023-04-19T02:16:42.864Z,24.62
2023-04-19T02:17:42.844Z,24.62
2023-04-19T02:18:42.870Z,24.63
2023-04-19T02:19:42.850Z,24.63
2023-04-19T02:20:42.849Z,24.63
2023-04-19T02:21:42.823Z,24.63
2023-04-19T02:22:42.839Z,24.63
2023-04-19T02:23:42.830Z,24.60
2023-04-19T02:24:42.827Z,24.62
2023-04-19T02:25:42.837Z,24.62
2023-04-19T02:26:42.840Z,24.62
2023-04-19T02:27:42.875Z,24.60
2023-04-19T02:28:42.840Z,24.62
2023-04-19T02:29:42.833Z,24.62
2023-04-19T02:30:42.820Z,24.63
2023-04-19T02:31:42.839Z,24.60
2023-04-19T02:32:42.838Z,24.59
2023-04-19T02:33:42.855Z,24.60
2023-04-19T02:34:42.846Z,24.62
2023-04-19T02:35:42.852Z,24.59
2023-04-19T02:36:42.829Z,24.62
2023-04-19T02:37:42.836Z,24.60
2023-04-19T02:38:42.881Z,24.60
2023-04-19T02:39:42.898Z,24.62
2023-04-19T02:40:42.849Z,24.63
2023-04-19T02:41:42.880Z,24.60
2023-04-19T02:42:42.841Z,24.60
2023-04-19T02:43:42.850Z,24.60
2023-04-19T02:44:42.848Z,24.59
2023-04-19T02:45:42.882Z,24.60
2023-04-19T02:46:42.879Z,24.60
2023-04-19T02:47:42.878Z,24.60
2023-04-19T02:48:42.846Z,24.59
2023-04-19T02:49:42.834Z,24.62
2023-04-19T02:50:42.852Z,24.59
2023-04-19T02:51:42.887Z,24.60
2023-04-19T02:52:42.851Z,24.59
2023-04-19T02:53:42.860Z,24.62
2023-04-19T02:54:42.839Z,24.59
2023-04-19T02:55:42.835Z,24.62
2023-04-19T02:56:42.843Z,24.60
2023-04-19T02:57:42.836Z,24.57
2023-04-19T02:58:42.843Z,24.60
2023-04-19T02:59:42.801Z,24.60
2023-04-19T03:00:42.825Z,24.60
2023-04-19T03:01:42.856Z,24.60
2023-04-19T03:02:42.872Z,24.59
2023-04-19T03:03:42.843Z,24.60
2023-04-19T03:04:42.806Z,24.57
2023-04-19T03:05:42.796Z,24.60
2023-04-19T03:06:42.783Z,24.59
2023-04-19T03:07:44.569Z,24.59
2023-04-19T03:08:42.813Z,24.56
2023-04-19T03:09:42.785Z,24.59
2023-04-19T03:10:42.778Z,24.60
2023-04-19T03:11:42.758Z,24.59
2023-04-19T03:12:42.793Z,24.57
2023-04-19T03:13:42.791Z,24.60
2023-04-19T03:14:42.791Z,24.59
2023-04-19T03:15:42.804Z,24.57
2023-04-19T03:16:42.809Z,24.57
2023-04-19T03:17:42.839Z,24.57
2023-04-19T03:18:42.758Z,24.60
2023-04-19T03:19:42.762Z,24.59
2023-04-19T03:20:42.840Z,24.57
2023-04-19T03:21:42.775Z,24.57
2023-04-19T03:22:42.750Z,24.57
2023-04-19T03:23:42.758Z,24.59
2023-04-19T03:24:42.764Z,24.59
2023-04-19T03:25:42.722Z,24.57
2023-04-19T03:26:42.739Z,24.57
2023-04-19T03:27:42.720Z,24.56
2023-04-19T03:28:42.739Z,24.59
2023-04-19T03:29:42.747Z,24.54
2023-04-19T03:30:42.735Z,24.54
2023-04-19T03:31:42.910Z,24.56
2023-04-19T03:32:43.785Z,24.57
2023-04-19T03:33:42.744Z,24.59
2023-04-19T03:34:42.718Z,24.53
2023-04-19T03:35:42.692Z,24.56
2023-04-19T03:36:42.746Z,24.56
2023-04-19T03:37:42.709Z,24.56
2023-04-19T03:38:42.735Z,24.57
2023-04-19T03:39:42.727Z,24.56
2023-04-19T03:40:42.749Z,24.56
2023-04-19T03:41:42.748Z,24.56
2023-04-19T03:42:42.737Z,24.54
2023-04-19T03:43:42.716Z,24.56
2023-04-19T03:44:42.714Z,24.56
2023-04-19T03:45:42.717Z,24.54
2023-04-19T03:46:42.836Z,24.54
2023-04-19T03:47:42.746Z,24.57
2023-04-19T03:48:42.753Z,24.56
2023-04-19T03:49:42.734Z,24.56
2023-04-19T03:50:42.721Z,24.56
2023-04-19T03:51:42.726Z,24.54
2023-04-19T03:52:42.747Z,24.54
2023-04-19T03:53:42.742Z,24.56
2023-04-19T03:54:42.727Z,24.56
2023-04-19T03:55:42.688Z,24.54
2023-04-19T03:56:42.713Z,24.54
2023-04-19T03:57:42.747Z,24.54
2023-04-19T03:58:42.980Z,24.53
2023-04-19T03:59:42.709Z,24.54
2023-04-19T04:00:42.724Z,24.53
2023-04-19T04:01:42.907Z,24.57
2023-04-19T04:02:42.933Z,24.54
2023-04-19T04:03:42.909Z,24.53
2023-04-19T04:04:42.898Z,24.54
2023-04-19T04:05:42.788Z,24.53
2023-04-19T04:06:42.713Z,24.52
2023-04-19T04:07:42.689Z,24.53
2023-04-19T04:08:42.701Z,24.54
2023-04-19T04:09:42.755Z,24.54
2023-04-19T04:10:42.741Z,24.54
2023-04-19T04:11:42.739Z,24.52
2023-04-19T04:12:42.754Z,24.54
2023-04-19T04:13:42.737Z,24.54
2023-04-19T04:14:42.741Z,24.54
2023-04-19T04:15:42.750Z,24.53
2023-04-19T04:16:42.807Z,24.54
2023-04-19T04:17:42.838Z,24.54
2023-04-19T04:18:42.795Z,24.52
2023-04-19T04:19:42.753Z,24.52
2023-04-19T04:20:42.754Z,24.53
2023-04-19T04:21:42.792Z,24.53
2023-04-19T04:22:42.770Z,24.52
2023-04-19T04:23:42.763Z,24.52
2023-04-19T04:24:42.809Z,24.52
2023-04-19T04:25:42.772Z,24.53
2023-04-19T04:26:42.776Z,24.53
2023-04-19T04:27:42.793Z,24.52
2023-04-19T04:28:42.823Z,24.54
2023-04-19T04:29:42.799Z,24.52
2023-04-19T04:30:42.848Z,24.53
2023-04-19T04:31:42.833Z,24.53
2023-04-19T04:32:42.899Z,24.52
2023-04-19T04:33:42.846Z,24.53
2023-04-19T04:34:42.910Z,24.50
2023-04-19T04:35:42.890Z,24.52
2023-04-19T04:36:42.839Z,24.52
2023-04-19T04:37:42.863Z,24.53
2023-04-19T04:38:42.876Z,24.53
2023-04-19T04:39:42.868Z,24.52
2023-04-19T04:40:42.862Z,24.52
2023-04-19T04:41:42.847Z,24.53
2023-04-19T04:42:42.869Z,24.53
2023-04-19T04:43:42.939Z,24.52
2023-04-19T04:44:42.928Z,24.52
2023-04-19T04:45:42.945Z,24.52
2023-04-19T04:46:42.951Z,24.52
2023-04-19T04:47:42.946Z,24.52
2023-04-19T04:48:42.982Z,24.53
2023-04-19T04:49:42.934Z,24.52
2023-04-19T04:50:42.942Z,24.52
2023-04-19T04:51:42.933Z,24.50
2023-04-19T04:52:42.947Z,24.52
2023-04-19T04:53:42.943Z,24.53
2023-04-19T04:54:42.944Z,24.54
2023-04-19T04:55:42.946Z,24.52
2023-04-19T04:56:43.034Z,24.54
2023-04-19T04:57:42.966Z,24.52
2023-04-19T04:58:42.945Z,24.52
2023-04-19T04:59:43.046Z,24.53
2023-04-19T05:00:42.964Z,24.53
2023-04-19T05:01:43.129Z,24.53
2023-04-19T05:02:43.033Z,24.54
2023-04-19T05:03:43.010Z,24.52
2023-04-19T05:04:43.063Z,24.52
2023-04-19T05:05:44.947Z,24.50
2023-04-19T05:06:43.001Z,24.50
2023-04-19T05:07:42.998Z,24.50
2023-04-19T05:08:43.010Z,24.50
2023-04-19T05:09:43.003Z,24.50
2023-04-19T05:10:43.067Z,24.52
2023-04-19T05:11:43.060Z,24.52
2023-04-19T05:12:43.035Z,24.50
2023-04-19T05:13:43.073Z,24.50
2023-04-19T05:14:43.092Z,24.52
2023-04-19T05:15:43.086Z,24.52
2023-04-19T05:16:43.170Z,24.52
2023-04-19T05:17:43.186Z,24.49
2023-04-19T05:18:43.095Z,24.52
2023-04-19T05:19:43.140Z,24.52
2023-04-19T05:20:43.121Z,24.50
2023-04-19T05:21:43.126Z,24.52
2023-04-19T05:22:43.134Z,24.50
2023-04-19T05:23:43.163Z,24.53
2023-04-19T05:24:43.174Z,24.49
2023-04-19T05:25:43.157Z,24.50
2023-04-19T05:26:43.196Z,24.52
2023-04-19T05:27:43.176Z,24.52
2023-04-19T05:28:43.201Z,24.52
2023-04-19T05:29:43.145Z,24.52
2023-04-19T05:30:43.154Z,24.50
2023-04-19T05:31:43.255Z,24.52
2023-04-19T05:32:43.213Z,24.50
2023-04-19T05:33:43.179Z,24.52
2023-04-19T05:34:43.185Z,24.50
2023-04-19T05:35:43.168Z,24.50
2023-04-19T05:36:43.185Z,24.52
2023-04-19T05:37:43.201Z,24.52
2023-04-19T05:38:43.206Z,24.52
2023-04-19T05:39:44.428Z,24.50
2023-04-19T05:40:43.197Z,24.50
2023-04-19T05:41:43.180Z,24.53
2023-04-19T05:42:43.225Z,24.52
2023-04-19T05:43:43.241Z,24.52
2023-04-19T05:44:43.219Z,24.50
2023-04-19T05:45:43.247Z,24.50
2023-04-19T05:46:43.221Z,24.50
2023-04-19T05:47:43.309Z,24.50
2023-04-19T05:48:43.239Z,24.50
2023-04-19T05:49:43.460Z,24.52
2023-04-19T05:50:43.258Z,24.53
2023-04-19T05:51:43.285Z,24.52
2023-04-19T05:52:43.243Z,24.53
2023-04-19T05:53:43.294Z,24.54
2023-04-19T05:54:43.247Z,24.53
2023-04-19T05:55:43.295Z,24.53
2023-04-19T05:56:43.255Z,24.53
2023-04-19T05:57:43.306Z,24.54
2023-04-19T05:58:43.257Z,24.53
2023-04-19T05:59:43.314Z,24.57
2023-04-19T06:00:43.288Z,24.52
2023-04-19T06:01:43.325Z,24.53
2023-04-19T06:02:43.317Z,24.53
2023-04-19T06:03:43.419Z,24.50
2023-04-19T06:04:43.631Z,24.52
2023-04-19T06:05:43.373Z,24.52
2023-04-19T06:06:43.287Z,24.54
2023-04-19T06:07:50.649Z,24.54
2023-04-19T06:08:44.330Z,24.54
2023-04-19T06:09:43.278Z,24.54
2023-04-19T06:10:53.275Z,24.57
2023-04-19T06:11:50.553Z,24.59
2023-04-19T06:12:44.263Z,24.59
2023-04-19T06:13:43.269Z,24.62
2023-04-19T06:14:43.259Z,24.60
2023-04-19T06:15:43.249Z,24.62
2023-04-19T06:16:43.215Z,24.62
2023-04-19T06:17:43.283Z,24.63
2023-04-19T06:18:43.239Z,24.62
2023-04-19T06:19:43.193Z,24.64
2023-04-19T06:20:43.193Z,24.64
2023-04-19T06:21:43.255Z,24.63
2023-04-19T06:22:43.201Z,24.63
2023-04-19T06:23:43.214Z,24.66
2023-04-19T06:24:43.255Z,24.64
2023-04-19T06:25:43.179Z,24.66
2023-04-19T06:26:43.151Z,24.67
2023-04-19T06:27:43.153Z,24.68
2023-04-19T06:28:43.130Z,24.68
2023-04-19T06:29:43.139Z,24.68
2023-04-19T06:30:43.150Z,24.70
2023-04-19T06:31:43.194Z,24.68
2023-04-19T06:32:43.132Z,24.71
2023-04-19T06:33:43.111Z,24.70
2023-04-19T06:34:43.109Z,24.70
2023-04-19T06:35:43.132Z,24.70
2023-04-19T06:36:43.104Z,24.70
2023-04-19T06:37:43.073Z,24.70
2023-04-19T06:38:43.067Z,24.71
2023-04-19T06:39:43.072Z,24.71
2023-04-19T06:40:43.064Z,24.71
2023-04-19T06:41:43.081Z,24.68
2023-04-19T06:42:43.040Z,24.71
2023-04-19T06:43:43.085Z,24.73
2023-04-19T06:44:43.040Z,24.73
2023-04-19T06:45:43.080Z,24.68
2023-04-19T06:46:43.040Z,24.73
2023-04-19T06:47:43.162Z,24.70
2023-04-19T06:48:43.007Z,24.73
2023-04-19T06:49:43.323Z,24.68
2023-04-19T06:50:43.001Z,24.71
2023-04-19T06:51:42.998Z,24.70
2023-04-19T06:52:42.977Z,24.71
2023-04-19T06:53:42.947Z,24.73
2023-04-19T06:54:42.974Z,24.73
2023-04-19T06:55:42.973Z,24.71
2023-04-19T06:56:42.958Z,24.74
2023-04-19T06:57:42.966Z,24.71
2023-04-19T06:58:42.926Z,24.74
2023-04-19T06:59:42.952Z,24.73
2023-04-19T07:00:42.938Z,24.73
2023-04-19T07:01:42.941Z,24.74
2023-04-19T07:02:43.037Z,24.73
2023-04-19T07:03:43.095Z,24.74
2023-04-19T07:04:43.388Z,24.77
2023-04-19T07:05:42.885Z,24.77
2023-04-19T07:06:42.893Z,24.77
2023-04-19T07:07:42.859Z,24.77
2023-04-19T07:09:43.866Z,24.78
2023-04-19T07:10:42.857Z,24.77
2023-04-19T07:11:42.880Z,24.80
2023-04-19T07:12:42.843Z,24.81
2023-04-19T07:13:42.826Z,24.83
2023-04-19T07:14:42.841Z,24.80
2023-04-19T07:15:42.817Z,24.81
2023-04-19T07:16:42.789Z,24.84
2023-04-19T07:17:42.830Z,24.83
2023-04-19T07:18:42.815Z,24.83
2023-04-19T07:19:42.909Z,24.85
2023-04-19T07:20:42.920Z,24.84
2023-04-19T07:21:42.965Z,24.87
2023-04-19T07:22:42.942Z,24.85
2023-04-19T07:23:42.978Z,24.85
2023-04-19T07:24:43.023Z,24.88
2023-04-19T07:25:43.028Z,24.88
2023-04-19T07:26:43.079Z,24.88
2023-04-19T07:27:43.166Z,24.88
2023-04-19T07:28:43.225Z,24.88
2023-04-19T07:29:43.266Z,24.90
2023-04-19T07:30:43.286Z,24.91
2023-04-19T07:31:43.382Z,24.88
2023-04-19T07:32:43.459Z,24.91
2023-04-19T07:33:43.454Z,24.88
2023-04-19T07:34:43.569Z,24.91
2023-04-19T07:35:43.569Z,24.90
2023-04-19T07:36:43.639Z,24.91
2023-04-19T07:37:43.698Z,24.93
2023-04-19T07:38:43.744Z,24.94
2023-04-19T07:39:43.844Z,24.94
2023-04-19T07:40:43.858Z,24.91
2023-04-19T07:41:43.910Z,24.93
2023-04-19T07:42:44.006Z,24.94
2023-04-19T07:43:44.068Z,24.94
2023-04-19T07:44:44.606Z,24.94
2023-04-19T07:45:44.173Z,24.90
2023-04-19T07:46:44.235Z,24.94
2023-04-19T07:47:44.315Z,24.95
2023-04-19T07:48:44.348Z,25.01
2023-04-19T07:49:44.437Z,24.99
2023-04-19T07:50:44.457Z,24.99
2023-04-19T07:51:44.516Z,24.98
2023-04-19T07:52:44.584Z,24.99
2023-04-19T07:53:44.639Z,25.01
2023-04-19T07:54:44.827Z,25.01
2023-04-19T07:55:44.766Z,24.99
2023-04-19T07:56:44.822Z,25.01
2023-04-19T07:57:44.899Z,24.99
2023-04-19T07:58:46.727Z,25.01
2023-04-19T07:59:45.930Z,24.99
2023-04-19T08:00:45.174Z,24.99
2023-04-19T08:01:45.036Z,24.97
2023-04-19T08:02:45.161Z,24.99
2023-04-19T08:03:45.049Z,24.99
2023-04-19T08:04:44.936Z,24.99
2023-04-19T08:05:44.916Z,24.98
2023-04-19T08:06:44.862Z,24.98
2023-04-19T08:07:44.902Z,24.97
2023-04-19T08:08:44.948Z,24.98
2023-04-19T08:09:45.057Z,24.98
2023-04-19T08:10:45.101Z,24.98
2023-04-19T08:11:45.143Z,24.97
2023-04-19T08:12:53.631Z,24.95
2023-04-19T08:13:59.464Z,24.95
2023-04-19T08:14:59.097Z,24.97
2023-04-19T08:17:45.473Z,24.97
2023-04-19T08:18:45.154Z,24.95
2023-04-19T08:19:45.161Z,24.97
2023-04-19T08:20:45.129Z,24.95
2023-04-19T08:21:45.138Z,24.97
2023-04-19T08:22:45.120Z,24.94
2023-04-19T08:23:48.211Z,24.93
2023-04-19T08:24:45.126Z,24.94
2023-04-19T08:25:45.103Z,24.93
2023-04-19T08:26:45.087Z,24.93
2023-04-19T08:27:45.054Z,24.95
2023-04-19T08:28:45.085Z,24.97
2023-04-19T08:29:45.068Z,24.95
2023-04-19T08:30:45.038Z,24.94
2023-04-19T08:31:45.097Z,24.95
2023-04-19T08:32:45.131Z,24.93
2023-04-19T08:33:45.026Z,24.88
2023-04-19T08:34:45.354Z,24.91
2023-04-19T08:35:45.042Z,24.93
2023-04-19T08:36:51.835Z,24.93
2023-04-19T08:37:46.008Z,24.91
2023-04-19T08:38:49.197Z,24.94
2023-04-19T08:39:46.363Z,24.98
2023-04-19T08:40:45.003Z,25.03
2023-04-19T08:41:48.060Z,25.04
2023-04-19T08:42:45.962Z,25.05
2023-04-19T08:43:44.963Z,25.10
2023-04-19T08:45:02.272Z,25.13
2023-04-19T08:45:45.959Z,25.15
2023-04-19T08:46:44.955Z,25.17
2023-04-19T08:47:59.004Z,25.17
2023-04-19T08:48:46.013Z,25.18
2023-04-19T08:49:45.378Z,25.21
2023-04-19T08:50:56.492Z,25.22
2023-04-19T08:51:45.890Z,25.21
2023-04-19T08:52:54.840Z,25.25
2023-04-19T08:53:45.901Z,25.25
2023-04-19T08:54:44.899Z,25.26
2023-04-19T08:55:54.814Z,25.29
2023-04-19T08:56:45.841Z,25.32
2023-04-19T08:57:44.840Z,25.28
2023-04-19T08:59:45.357Z,25.29
2023-04-19T09:00:44.838Z,25.31
2023-04-19T09:01:45.054Z,25.34
2023-04-19T09:02:47.424Z,25.35
2023-04-19T09:04:00.491Z,25.34
2023-04-19T09:04:46.059Z,25.35
2023-04-19T09:05:44.908Z,25.38
2023-04-19T09:06:44.833Z,25.35
2023-04-19T09:07:44.795Z,25.39
2023-04-19T09:08:44.787Z,25.41
2023-04-19T09:09:55.935Z,25.39
2023-04-19T09:10:45.844Z,25.38
2023-04-19T09:11:44.741Z,25.39
2023-04-19T09:12:44.746Z,25.42
2023-04-19T09:13:44.726Z,25.41
2023-04-19T09:14:50.311Z,25.41
2023-04-19T09:15:45.768Z,25.44
2023-04-19T09:16:44.720Z,25.44
2023-04-19T09:17:44.784Z,25.44
2023-04-19T09:18:56.259Z,25.45
2023-04-19T09:19:45.692Z,25.45
2023-04-19T09:20:44.738Z,25.46
2023-04-19T09:21:44.664Z,25.46
2023-04-19T09:22:44.652Z,25.46
2023-04-19T09:23:44.669Z,25.46
2023-04-19T09:26:44.648Z,25.50
2023-04-19T09:27:44.661Z,25.50
2023-04-19T09:28:44.632Z,25.48
2023-04-19T09:29:44.609Z,25.46
2023-04-19T09:30:58.256Z,25.50
2023-04-19T09:31:51.342Z,25.50
2023-04-19T09:32:45.653Z,25.50
2023-04-19T09:33:44.659Z,25.49
2023-04-19T09:34:44.623Z,25.50
2023-04-19T09:35:44.585Z,25.52
2023-04-19T09:36:44.638Z,25.55
2023-04-19T09:38:44.563Z,25.55
2023-04-19T09:39:44.560Z,25.53
2023-04-19T09:40:44.936Z,25.53
2023-04-19T09:41:44.556Z,25.52
2023-04-19T09:44:02.329Z,25.62
2023-04-19T09:45:20.860Z,25.58
2023-04-19T09:45:45.916Z,25.50
2023-04-19T09:46:44.546Z,25.44
2023-04-19T09:47:44.522Z,25.42
2023-04-19T09:48:44.505Z,25.41
2023-04-19T09:49:49.057Z,25.41
2023-04-19T09:50:54.688Z,25.41
2023-04-19T09:51:45.478Z,25.44
2023-04-19T09:52:44.443Z,25.42
2023-04-19T09:53:44.494Z,25.46
2023-04-19T09:54:44.557Z,25.48
2023-04-19T09:55:57.158Z,25.49
2023-04-19T09:56:45.601Z,25.50
2023-04-19T09:57:44.555Z,25.55
2023-04-19T09:58:51.267Z,25.56
2023-04-19T09:59:45.569Z,25.58
2023-04-19T10:00:50.066Z,25.61
2023-04-19T10:01:45.583Z,25.62
2023-04-19T10:02:44.580Z,25.65
2023-04-19T10:03:44.912Z,25.68
2023-04-19T10:05:45.568Z,25.66
2023-04-19T10:07:44.600Z,25.70
2023-04-19T10:08:44.517Z,25.72
2023-04-19T10:09:53.096Z,25.72
2023-04-19T10:10:45.736Z,25.73
2023-04-19T10:11:46.919Z,25.75
2023-04-19T10:12:59.226Z,25.75
2023-04-19T10:13:45.455Z,25.75
2023-04-19T10:14:44.440Z,25.75
2023-04-19T10:15:51.963Z,25.76
2023-04-19T10:16:45.496Z,25.79
2023-04-19T10:17:44.457Z,25.77
2023-04-19T10:18:44.425Z,25.80
2023-04-19T10:19:44.409Z,25.77
2023-04-19T10:20:44.440Z,25.82
2023-04-19T10:21:44.389Z,25.77
2023-04-19T10:22:44.412Z,25.79
2023-04-19T10:23:44.391Z,25.80
2023-04-19T10:24:45.466Z,25.80
2023-04-19T10:25:44.406Z,25.79
2023-04-19T10:26:44.362Z,25.80
2023-04-19T10:27:46.930Z,25.80
2023-04-19T10:28:44.501Z,25.80
2023-04-19T10:29:44.518Z,25.80
2023-04-19T10:30:44.545Z,25.82
2023-04-19T10:31:44.543Z,25.82
2023-04-19T10:32:44.532Z,25.82
2023-04-19T10:33:44.525Z,25.83
2023-04-19T10:34:44.475Z,25.80
2023-04-19T10:35:44.915Z,25.76
2023-04-19T10:36:44.580Z,25.70
2023-04-19T10:37:44.577Z,25.59
2023-04-19T10:38:44.735Z,25.52
2023-04-19T10:39:44.681Z,25.28
2023-04-19T10:40:44.683Z,25.14
2023-04-19T10:41:44.671Z,24.98
2023-04-19T10:42:44.675Z,24.91
2023-04-19T10:43:44.692Z,24.88
2023-04-19T10:44:44.733Z,24.90
2023-04-19T10:45:44.829Z,24.87
2023-04-19T10:46:44.822Z,24.93
2023-04-19T10:47:44.874Z,24.95
2023-04-19T10:48:44.824Z,24.99
2023-04-19T10:49:44.883Z,25.04
2023-04-19T10:50:44.915Z,25.13
2023-04-19T10:51:44.926Z,25.15
2023-04-19T10:52:44.994Z,25.22
2023-04-19T10:53:45.028Z,25.28
2023-04-19T10:54:44.985Z,25.32
2023-04-19T10:55:45.010Z,25.36
2023-04-19T10:56:45.183Z,25.39
2023-04-19T10:57:44.976Z,25.46
2023-04-19T10:58:46.363Z,25.46
2023-04-19T10:59:45.008Z,25.50
2023-04-19T11:00:45.034Z,25.55
2023-04-19T11:01:45.131Z,25.55
2023-04-19T11:02:45.181Z,25.59
2023-04-19T11:03:45.204Z,25.61
2023-04-19T11:04:45.253Z,25.64
2023-04-19T11:05:45.415Z,25.69
2023-04-19T11:06:45.035Z,25.68
2023-04-19T11:07:45.065Z,25.72
2023-04-19T11:08:45.059Z,25.75
2023-04-19T11:09:45.088Z,25.75
2023-04-19T11:10:45.048Z,25.76
2023-04-19T11:11:45.058Z,25.77
2023-04-19T11:12:45.062Z,25.73
2023-04-19T11:13:45.070Z,25.69
2023-04-19T11:14:45.116Z,25.65
2023-04-19T11:15:45.134Z,25.62
2023-04-19T11:16:46.350Z,25.58
2023-04-19T11:17:45.149Z,25.55
2023-04-19T11:18:45.127Z,25.53
2023-04-19T11:19:45.137Z,25.52
2023-04-19T11:20:45.137Z,25.49
2023-04-19T11:21:45.204Z,25.48
2023-04-19T11:22:45.222Z,25.50
2023-04-19T11:23:45.315Z,25.48
2023-04-19T11:24:45.318Z,25.49
2023-04-19T11:25:45.357Z,25.48
2023-04-19T11:26:45.376Z,25.48
2023-04-19T11:27:45.448Z,25.46
2023-04-19T11:28:45.444Z,25.46
2023-04-19T11:29:45.462Z,25.52
2023-04-19T11:30:45.474Z,25.53
2023-04-19T11:31:45.988Z,25.52
2023-04-19T11:32:45.555Z,25.53
2023-04-19T11:33:45.536Z,25.53
2023-04-19T11:34:45.499Z,25.56
2023-04-19T11:35:45.554Z,25.59
2023-04-19T11:36:45.570Z,25.62
2023-04-19T11:37:45.590Z,25.62
2023-04-19T11:38:45.615Z,25.62
2023-04-19T11:39:45.604Z,25.65
2023-04-19T11:40:45.591Z,25.65
2023-04-19T11:41:45.551Z,25.66
2023-04-19T11:42:45.575Z,25.66
2023-04-19T11:43:45.570Z,25.65
2023-04-19T11:44:45.582Z,25.66
2023-04-19T11:45:45.602Z,25.62
2023-04-19T11:46:45.657Z,25.62
2023-04-19T11:47:45.612Z,25.61
2023-04-19T11:48:45.576Z,25.61
2023-04-19T11:49:45.574Z,25.59
2023-04-19T11:50:45.610Z,25.58
2023-04-19T11:51:45.614Z,25.56
2023-04-19T11:52:45.707Z,25.55
2023-04-19T11:53:45.607Z,25.55
2023-04-19T11:54:45.654Z,25.53
2023-04-19T11:55:45.674Z,25.55
2023-04-19T11:56:45.647Z,25.55
2023-04-19T11:57:45.694Z,25.55
2023-04-19T11:58:45.705Z,25.52
2023-04-19T11:59:45.711Z,25.52
2023-04-19T12:00:45.756Z,25.53
2023-04-19T12:01:45.735Z,25.50
2023-04-19T12:02:45.885Z,25.49
2023-04-19T12:03:46.064Z,25.50
2023-04-19T12:04:45.951Z,25.52
2023-04-19T12:05:45.935Z,25.50
2023-04-19T12:06:45.835Z,25.48
2023-04-19T12:07:45.889Z,25.45
2023-04-19T12:08:45.893Z,25.46
2023-04-19T12:09:45.947Z,25.42
2023-04-19T12:10:53.060Z,25.42
2023-04-19T12:11:45.948Z,25.41
2023-04-19T12:12:45.922Z,25.41
2023-04-19T12:13:45.951Z,25.41
2023-04-19T12:14:45.929Z,25.36
2023-04-19T12:15:45.918Z,25.38
2023-04-19T12:16:46.265Z,25.36
2023-04-19T12:17:56.630Z,25.35
2023-04-19T12:18:46.876Z,25.36
2023-04-19T12:19:45.886Z,25.32
2023-04-19T12:20:45.898Z,25.31
2023-04-19T12:21:45.926Z,25.24
2023-04-19T12:22:45.897Z,25.19
2023-04-19T12:23:45.869Z,25.17
2023-04-19T12:24:45.844Z,25.10
2023-04-19T12:25:45.838Z,25.03
2023-04-19T12:26:45.838Z,25.05
2023-04-19T12:27:45.830Z,25.01
2023-04-19T12:28:45.829Z,25.01
2023-04-19T12:29:45.853Z,25.03
2023-04-19T12:30:45.889Z,25.04
2023-04-19T12:31:45.922Z,25.07
2023-04-19T12:32:45.908Z,25.08
2023-04-19T12:33:45.952Z,25.10
2023-04-19T12:34:46.006Z,25.14
2023-04-19T12:35:46.044Z,25.15
2023-04-19T12:36:46.092Z,25.19
2023-04-19T12:37:46.134Z,25.22
2023-04-19T12:38:46.176Z,25.25
2023-04-19T12:39:46.234Z,25.28
2023-04-19T12:40:46.226Z,25.31
2023-04-19T12:41:46.256Z,25.34
2023-04-19T12:42:46.268Z,25.39
2023-04-19T12:43:46.284Z,25.39
2023-04-19T12:44:46.305Z,25.44
2023-04-19T12:45:46.367Z,25.44
2023-04-19T12:46:46.344Z,25.46
2023-04-19T12:47:46.356Z,25.52
2023-04-19T12:48:46.353Z,25.55
2023-04-19T12:49:46.337Z,25.58
2023-04-19T12:50:46.381Z,25.59
2023-04-19T12:51:46.386Z,25.59
2023-04-19T12:52:46.375Z,25.62
2023-04-19T12:53:46.387Z,25.64
2023-04-19T12:54:46.404Z,25.64
2023-04-19T12:55:46.379Z,25.65
2023-04-19T12:56:46.408Z,25.68
2023-04-19T12:57:46.380Z,25.68
2023-04-19T12:58:46.410Z,25.68
2023-04-19T12:59:46.380Z,25.69
2023-04-19T13:00:46.383Z,25.68
2023-04-19T13:01:46.493Z,25.70
2023-04-19T13:02:46.434Z,25.70